PILOTS ONLINE: 335    ATC ONLINE: 33

KHHR - Jack Northrop Field Hawthorne Municipal Airport

Location

City Hawthorne
Country  United States
Latitude 33° 55' 22" N
Longitude 118° 20' 5" W
Elevation 66 ft
Type Medium Airport

Runways

07/25 4956 ft / 100 ft

Weather

METAR
2014/08/02 03:53
KHHR 020353Z AUTO 24007KT 10SM BKN009 21/18 A2989 RMK AO2 SLP120 T02060178
TAF
No TAF available

Outbound flights

Inbound flights